Anselmo, Nebraska
Current Conditions -  °F | °C
As of 10:53 PM on Thursday 30 Oct 2014 (Local Time) from KBBW Reporting Station
Clear Clear  
Wind Chill: 30°   Ceiling: Unl
Heat Index: 36°   Visibility: 10mi
Dew Point: 32°   Wind: 8mph
Humidity: 86%   Direction: 10°N
Pressure: 30.42"   Gusts: NA
Location:  41.62°N, 99.87°W
Report Text: KBBW 310353Z AUTO 01007KT 10SM CLR 02/00 A3042 RMK AO2 SLP310 T00220000
Loading
Personal Weather Stations






























Interactive Weather Map
Tropical Storm Tracking
New forecast layout! Learn more

10-Day Weather Forecast

Advertisements
Track Severe Weather on mobile